< Typhoon 200429 2005 Season Typhoon 200502 >
Typhoon 200501 (KULAP)
General InformationTrack Information on Google MapsDetailed Wind InformationAccess Analytics MapList of All Images || NewsDisaster Info.WeblogTrackbackTyphoon FrontResourceGoogle EarthGE AnimationAtom FeedGeoJSON
Detalied Best Track (Time Zone = UTC)
Year Month Day Hour Lat. Long. Pressure (hPa) Wind (kt) Class Image Chart
2005 1 14 00 5.2 148.1 1004 0 2 Image Chart
2005 1 14 06 5.7 148.0 1002 0 2 Image Chart
2005 1 14 12 6.8 147.8 1000 0 2 Image Chart
2005 1 14 18 7.0 147.5 998 0 2 Image Chart
2005 1 15 00 7.5 146.9 998 0 2 Image Chart
2005 1 15 06 8.1 146.9 998 0 2 Image Chart
2005 1 15 12 9.5 146.6 996 35 3 Image Chart
2005 1 15 18 10.9 146.6 994 40 3 Image Chart
2005 1 16 00 11.5 146.6 994 40 3 Image Chart
2005 1 16 06 12.6 146.6 992 40 3 Image Chart
2005 1 16 12 12.9 146.6 992 40 3 Image Chart
2005 1 16 18 13.5 146.9 990 45 3 Image Chart
2005 1 17 00 14.3 147.5 990 45 3 Image Chart
2005 1 17 06 15.0 148.6 990 45 3 Image Chart
2005 1 17 12 15.7 149.6 985 50 4 Image Chart
2005 1 17 18 16.3 150.7 985 50 4 Image Chart
2005 1 18 00 16.7 151.6 985 50 4 Image Chart
2005 1 18 06 17.2 152.6 985 50 4 Image Chart
2005 1 18 12 17.6 153.2 985 50 4 Image Chart
2005 1 18 18 18.0 153.8 990 45 3 Image Chart
2005 1 19 00 18.4 154.4 1000 35 3 Image Chart
2005 1 19 06 18.7 155.1 1004 0 6 Image Chart
2005 1 19 12 18.9 155.8 1012 0 6 Image Chart
Japan Meteorological Agency Best Track Data | Correction Date : 2005-12-19
< Typhoon 200429 2005 Season Typhoon 200502 >

Help